DLH326 ULMM-UUYH
Flight info
| Callsign | DLH326 |
|---|---|
| Flight time | N/A |
| Altitude | 35000 |
| Route | LOPRA2P LOPRA T822 SOTIS P35 UTUKA UTUKA3P |
| Aircraft | A346/H-SDE2E3FGHIJ3J4J5M1RWXY/LB1D1 |
Departure
| Time | N/A |
|---|---|
| Airport | Emperor Nicholas II Murmansk Airport (ULMM) |
Arrival
| Time | 2026-04-27 18:41 |
|---|---|
| Airport | Ukhta Airport (UUYH) |
| Time | Latitude | Longitude | Altitude | Speed | Heading |
|---|---|---|---|---|---|
| 2026-04-27 18:16 | 63.48410 | 53.66720 | 2030 ft | 278 kts | 300° |
| 2026-04-27 18:16 | 63.49898 | 53.63816 | 2053 ft | 290 kts | 324° |
| 2026-04-27 18:16 | 63.51520 | 53.61201 | 2042 ft | 285 kts | 316° |
| 2026-04-27 18:17 | 63.53005 | 53.58266 | 2025 ft | 284 kts | 313° |
| 2026-04-27 18:17 | 63.54431 | 53.55278 | 2021 ft | 282 kts | 306° |
| 2026-04-27 18:17 | 63.55353 | 53.51573 | 2030 ft | 269 kts | 283° |
| 2026-04-27 18:17 | 63.56161 | 53.47664 | 2039 ft | 275 kts | 291° |
| 2026-04-27 18:18 | 63.57039 | 53.43905 | 2024 ft | 275 kts | 291° |
| 2026-04-27 18:18 | 63.57925 | 53.40002 | 2030 ft | 277 kts | 291° |
| 2026-04-27 18:18 | 63.58792 | 53.36121 | 2026 ft | 276 kts | 290° |
| 2026-04-27 18:18 | 63.59658 | 53.32268 | 2026 ft | 276 kts | 291° |
| 2026-04-27 18:19 | 63.60509 | 53.28462 | 2019 ft | 276 kts | 290° |
| 2026-04-27 18:19 | 63.61417 | 53.24401 | 2010 ft | 275 kts | 290° |
| 2026-04-27 18:19 | 63.62292 | 53.20510 | 2020 ft | 277 kts | 291° |
| 2026-04-27 18:19 | 63.63188 | 53.16662 | 2010 ft | 280 kts | 298° |
| 2026-04-27 18:20 | 63.64669 | 53.13742 | 2000 ft | 291 kts | 335° |
| 2026-04-27 18:20 | 63.66654 | 53.13043 | 2016 ft | 292 kts | 11° |
| 2026-04-27 18:20 | 63.68481 | 53.14747 | 2038 ft | 283 kts | 40° |
| 2026-04-27 18:20 | 63.70151 | 53.17066 | 1998 ft | 284 kts | 22° |
| 2026-04-27 18:21 | 63.72103 | 53.17369 | 2003 ft | 286 kts | 345° |
| 2026-04-27 18:21 | 63.73813 | 53.15116 | 2266 ft | 290 kts | 304° |
| 2026-04-27 18:21 | 63.74629 | 53.11156 | 3119 ft | 269 kts | 270° |
| 2026-04-27 18:21 | 63.74560 | 53.07122 | 3788 ft | 246 kts | 252° |
| 2026-04-27 18:22 | 63.74189 | 53.03570 | 4177 ft | 221 kts | 244° |
| 2026-04-27 18:22 | 63.73869 | 53.00176 | 4048 ft | 226 kts | 266° |
| 2026-04-27 18:22 | 63.74295 | 52.96667 | 4038 ft | 237 kts | 284° |
| 2026-04-27 18:22 | 63.74987 | 52.93252 | 4018 ft | 240 kts | 288° |
| 2026-04-27 18:23 | 63.75724 | 52.89857 | 4017 ft | 241 kts | 289° |
| 2026-04-27 18:23 | 63.76465 | 52.86459 | 4013 ft | 240 kts | 289° |
| 2026-04-27 18:23 | 63.77206 | 52.83066 | 4013 ft | 240 kts | 289° |
| 2026-04-27 18:23 | 63.77947 | 52.79677 | 4011 ft | 240 kts | 289° |
| 2026-04-27 18:24 | 63.78691 | 52.76286 | 4015 ft | 240 kts | 289° |
| 2026-04-27 18:24 | 63.79436 | 52.72899 | 4014 ft | 240 kts | 289° |
| 2026-04-27 18:24 | 63.80195 | 52.69516 | 4008 ft | 242 kts | 294° |
| 2026-04-27 18:24 | 63.81286 | 52.66545 | 3950 ft | 245 kts | 310° |
| 2026-04-27 18:25 | 63.82679 | 52.64324 | 3729 ft | 250 kts | 338° |
| 2026-04-27 18:25 | 63.84405 | 52.63886 | 3403 ft | 254 kts | 12° |
| 2026-04-27 18:25 | 63.85990 | 52.65460 | 3048 ft | 247 kts | 48° |
| 2026-04-27 18:25 | 63.86943 | 52.68493 | 2731 ft | 229 kts | 83° |
| 2026-04-27 18:26 | 63.87158 | 52.71916 | 2548 ft | 213 kts | 99° |
| 2026-04-27 18:26 | 63.87076 | 52.75191 | 2348 ft | 202 kts | 108° |
| 2026-04-27 18:26 | 63.86785 | 52.78185 | 2231 ft | 188 kts | 114° |
| 2026-04-27 18:26 | 63.86472 | 52.81009 | 2058 ft | 181 kts | 112° |
| 2026-04-27 18:27 | 63.86216 | 52.83447 | 2011 ft | 170 kts | 112° |
| 2026-04-27 18:27 | 63.85950 | 52.86022 | 2017 ft | 167 kts | 113° |
| 2026-04-27 18:27 | 63.85692 | 52.88599 | 2004 ft | 167 kts | 114° |
| 2026-04-27 18:27 | 63.85413 | 52.91169 | 2016 ft | 168 kts | 114° |
| 2026-04-27 18:28 | 63.85126 | 52.93731 | 2029 ft | 168 kts | 115° |
| 2026-04-27 18:28 | 63.84837 | 52.96293 | 2025 ft | 167 kts | 115° |
| 2026-04-27 18:28 | 63.84545 | 52.98846 | 2013 ft | 167 kts | 114° |
| 2026-04-27 18:28 | 63.84245 | 53.01399 | 2020 ft | 168 kts | 114° |
| 2026-04-27 18:29 | 63.83942 | 53.03965 | 2023 ft | 167 kts | 113° |
| 2026-04-27 18:29 | 63.83681 | 53.06544 | 2014 ft | 168 kts | 112° |
| 2026-04-27 18:29 | 63.83431 | 53.09143 | 2027 ft | 169 kts | 112° |
| 2026-04-27 18:29 | 63.83186 | 53.11743 | 2031 ft | 168 kts | 111° |
| 2026-04-27 18:30 | 63.82943 | 53.14323 | 2022 ft | 167 kts | 112° |
| 2026-04-27 18:30 | 63.82707 | 53.16912 | 2017 ft | 168 kts | 113° |
| 2026-04-27 18:30 | 63.82417 | 53.19472 | 2031 ft | 167 kts | 115° |
| 2026-04-27 18:30 | 63.82097 | 53.22004 | 2031 ft | 166 kts | 115° |
| 2026-04-27 18:31 | 63.81775 | 53.24514 | 2028 ft | 166 kts | 116° |
| 2026-04-27 18:31 | 63.81455 | 53.27026 | 2024 ft | 166 kts | 116° |
| 2026-04-27 18:31 | 63.81137 | 53.29548 | 2020 ft | 166 kts | 115° |
| 2026-04-27 18:31 | 63.80820 | 53.32067 | 2024 ft | 165 kts | 115° |
| 2026-04-27 18:32 | 63.80515 | 53.34576 | 2022 ft | 165 kts | 115° |
| 2026-04-27 18:32 | 63.80219 | 53.37094 | 2022 ft | 167 kts | 115° |
| 2026-04-27 18:32 | 63.79923 | 53.39644 | 2027 ft | 167 kts | 115° |
| 2026-04-27 18:32 | 63.79623 | 53.42197 | 2017 ft | 168 kts | 115° |
| 2026-04-27 18:33 | 63.79317 | 53.44843 | 2024 ft | 169 kts | 115° |
| 2026-04-27 18:33 | 63.79015 | 53.47440 | 2039 ft | 170 kts | 115° |
| 2026-04-27 18:33 | 63.78709 | 53.50024 | 2042 ft | 169 kts | 115° |
| 2026-04-27 18:33 | 63.78401 | 53.52597 | 2038 ft | 169 kts | 115° |
| 2026-04-27 18:34 | 63.78095 | 53.55164 | 2026 ft | 169 kts | 115° |
| 2026-04-27 18:34 | 63.77788 | 53.57739 | 2044 ft | 170 kts | 115° |
| 2026-04-27 18:34 | 63.77478 | 53.60324 | 2031 ft | 170 kts | 115° |
| 2026-04-27 18:34 | 63.77173 | 53.62916 | 2031 ft | 170 kts | 115° |
| 2026-04-27 18:35 | 63.76877 | 53.65502 | 2034 ft | 169 kts | 115° |
| 2026-04-27 18:35 | 63.76582 | 53.68084 | 2034 ft | 169 kts | 115° |
| 2026-04-27 18:35 | 63.76273 | 53.70645 | 2049 ft | 169 kts | 116° |
| 2026-04-27 18:35 | 63.75946 | 53.73192 | 2037 ft | 168 kts | 116° |
| 2026-04-27 18:36 | 63.75613 | 53.75736 | 2021 ft | 169 kts | 116° |
| 2026-04-27 18:36 | 63.75268 | 53.78278 | 2038 ft | 170 kts | 117° |
| 2026-04-27 18:36 | 63.74918 | 53.80833 | 2034 ft | 170 kts | 117° |
| 2026-04-27 18:36 | 63.74562 | 53.83339 | 2033 ft | 168 kts | 118° |
| 2026-04-27 18:37 | 63.74151 | 53.85796 | 2023 ft | 164 kts | 127° |
| 2026-04-27 18:37 | 63.73367 | 53.87343 | 2006 ft | 148 kts | 168° |
| 2026-04-27 18:37 | 63.72322 | 53.87331 | 2055 ft | 154 kts | 178° |
| 2026-04-27 18:37 | 63.71259 | 53.87916 | 2067 ft | 158 kts | 167° |
| 2026-04-27 18:38 | 63.70175 | 53.88180 | 2040 ft | 155 kts | 181° |
| 2026-04-27 18:38 | 63.69102 | 53.87919 | 2040 ft | 156 kts | 187° |
| 2026-04-27 18:38 | 63.68034 | 53.87433 | 2043 ft | 158 kts | 190° |
| 2026-04-27 18:38 | 63.66967 | 53.86832 | 2033 ft | 158 kts | 191° |
| 2026-04-27 18:39 | 63.65907 | 53.86183 | 2028 ft | 158 kts | 192° |
| 2026-04-27 18:39 | 63.64848 | 53.85521 | 1916 ft | 158 kts | 192° |
| 2026-04-27 18:39 | 63.63789 | 53.84859 | 1723 ft | 157 kts | 192° |
| 2026-04-27 18:39 | 63.62678 | 53.84167 | 1476 ft | 157 kts | 191° |
| 2026-04-27 18:40 | 63.61589 | 53.83493 | 1236 ft | 156 kts | 192° |
| 2026-04-27 18:40 | 63.60536 | 53.82839 | 1008 ft | 155 kts | 192° |
| 2026-04-27 18:40 | 63.59499 | 53.82196 | 816 ft | 154 kts | 193° |
| 2026-04-27 18:40 | 63.58470 | 53.81556 | 588 ft | 153 kts | 193° |
| 2026-04-27 18:41 | 63.57476 | 53.80940 | 454 ft | 124 kts | 196° |
| 2026-04-27 18:41 | 63.56975 | 53.80630 | 464 ft | 25 kts | 191° |
| 2026-04-27 18:41 | 63.56903 | 53.80589 | 465 ft | 31 kts | 195° |
| 2026-04-27 18:41 | 63.56568 | 53.80383 | 471 ft | 24 kts | 194° |
| 2026-04-27 18:42 | 63.56549 | 53.80371 | 471 ft | 0 kts | 195° |